createdAt,value
2022-10-11T00:01:05.253Z,11.70
2022-10-11T00:03:33.144Z,11.70
2022-10-11T00:06:03.142Z,11.70
2022-10-11T00:08:32.628Z,11.70
2022-10-11T00:11:02.320Z,11.80
2022-10-11T00:13:30.466Z,11.80
2022-10-11T00:15:58.777Z,11.80
2022-10-11T00:18:26.801Z,11.80
2022-10-11T00:21:02.174Z,11.80
2022-10-11T00:23:30.241Z,11.80
2022-10-11T00:26:00.566Z,11.90
2022-10-11T00:28:28.527Z,11.90
2022-10-11T00:30:56.378Z,11.90
2022-10-11T00:33:24.132Z,11.90
2022-10-11T00:35:51.898Z,11.90
2022-10-11T00:38:19.777Z,12.00
2022-10-11T00:40:47.595Z,12.00
2022-10-11T00:43:18.363Z,12.10
2022-10-11T00:46:23.266Z,12.10
2022-10-11T00:48:56.797Z,12.20
2022-10-11T00:51:34.314Z,12.20
2022-10-11T00:54:03.370Z,12.30
2022-10-11T00:56:34.400Z,12.30
2022-10-11T00:59:07.547Z,12.40
2022-10-11T01:01:35.394Z,12.40
2022-10-11T01:04:03.875Z,12.40
2022-10-11T01:06:31.623Z,12.40
2022-10-11T01:09:00.148Z,12.40
2022-10-11T01:11:30.823Z,12.40
2022-10-11T01:14:15.777Z,12.40
2022-10-11T01:16:52.202Z,12.40
2022-10-11T01:19:39.428Z,12.40
2022-10-11T01:22:23.437Z,12.40
2022-10-11T01:25:12.043Z,12.40
2022-10-11T01:27:55.232Z,12.40
2022-10-11T01:30:26.455Z,12.40
2022-10-11T01:33:20.939Z,12.40
2022-10-11T01:35:55.479Z,12.40
2022-10-11T01:38:31.088Z,12.40
2022-10-11T01:41:04.237Z,12.40
2022-10-11T01:43:33.435Z,12.40
2022-10-11T01:46:04.129Z,12.30
2022-10-11T01:48:32.206Z,12.40
2022-10-11T01:51:04.202Z,12.40
2022-10-11T01:53:59.774Z,12.40
2022-10-11T01:56:52.768Z,12.40
2022-10-11T01:59:30.475Z,12.40
2022-10-11T02:02:11.599Z,12.40
2022-10-11T02:04:44.335Z,12.40
2022-10-11T02:07:20.530Z,12.40
2022-10-11T02:09:54.295Z,12.50
2022-10-11T02:12:29.140Z,12.50
2022-10-11T02:14:59.029Z,12.50
2022-10-11T02:17:32.845Z,12.50
2022-10-11T02:20:04.792Z,12.50
2022-10-11T02:22:38.030Z,12.40
2022-10-11T02:25:09.739Z,12.40
2022-10-11T02:27:40.525Z,12.50
2022-10-11T02:30:10.103Z,12.50
2022-10-11T02:32:43.007Z,12.50
2022-10-11T02:35:12.425Z,12.50
2022-10-11T02:37:44.267Z,12.40
2022-10-11T02:40:17.442Z,12.40
2022-10-11T02:42:51.376Z,12.40
2022-10-11T02:45:24.939Z,12.40
2022-10-11T02:47:54.650Z,12.40
2022-10-11T02:50:23.458Z,12.40
2022-10-11T02:52:51.219Z,12.40
2022-10-11T02:55:19.350Z,12.50
2022-10-11T02:57:47.253Z,12.40
2022-10-11T03:00:16.260Z,12.40
2022-10-11T03:02:44.017Z,12.50
2022-10-11T03:05:13.136Z,12.40
2022-10-11T03:07:40.887Z,12.40
2022-10-11T03:10:09.655Z,12.40
2022-10-11T03:12:37.495Z,12.30
2022-10-11T03:15:06.356Z,12.30
2022-10-11T03:17:36.971Z,12.30
2022-10-11T03:20:06.360Z,12.30
2022-10-11T03:22:35.722Z,12.30
2022-10-11T03:25:04.745Z,12.30
2022-10-11T03:27:32.994Z,12.30
2022-10-11T03:30:01.355Z,12.30
2022-10-11T03:32:29.507Z,12.30
2022-10-11T03:34:57.660Z,12.40
2022-10-11T03:37:25.758Z,12.40
2022-10-11T03:39:54.880Z,12.40
2022-10-11T03:42:22.691Z,12.40
2022-10-11T03:44:51.871Z,12.40
2022-10-11T03:47:19.967Z,12.40
2022-10-11T03:49:47.755Z,12.40
2022-10-11T03:52:15.526Z,12.40
2022-10-11T03:54:43.251Z,12.40
2022-10-11T03:57:12.419Z,12.40
2022-10-11T03:59:40.178Z,12.40
2022-10-11T04:02:08.013Z,12.40
2022-10-11T04:04:36.323Z,12.40
2022-10-11T04:07:04.139Z,12.40
2022-10-11T04:09:32.107Z,12.40
2022-10-11T04:12:00.000Z,12.40
2022-10-11T04:14:29.341Z,12.40
2022-10-11T04:17:00.233Z,12.40
2022-10-11T04:19:28.797Z,12.40
2022-10-11T04:21:56.573Z,12.40
2022-10-11T04:24:24.396Z,12.40
2022-10-11T04:26:52.167Z,12.40
2022-10-11T04:29:20.009Z,12.40
2022-10-11T04:31:49.182Z,12.40
2022-10-11T04:34:17.357Z,12.40
2022-10-11T04:36:49.041Z,12.40
2022-10-11T04:39:18.186Z,12.40
2022-10-11T04:41:46.006Z,12.40
2022-10-11T04:44:13.778Z,12.40
2022-10-11T04:46:41.692Z,12.40
2022-10-11T04:49:10.819Z,12.30
2022-10-11T04:51:38.568Z,12.30
2022-10-11T04:54:06.547Z,12.30
2022-10-11T04:56:34.299Z,12.30
2022-10-11T04:59:02.070Z,12.20
2022-10-11T05:01:29.856Z,12.30
2022-10-11T05:03:57.626Z,12.30
2022-10-11T05:06:26.750Z,12.30
2022-10-11T05:08:54.703Z,12.30
2022-10-11T05:11:22.523Z,12.30
2022-10-11T05:13:50.325Z,12.20
2022-10-11T05:16:18.644Z,12.20
2022-10-11T05:18:46.452Z,12.20
2022-10-11T05:21:17.819Z,12.20
2022-10-11T05:23:47.970Z,12.20
2022-10-11T05:26:16.115Z,12.20
2022-10-11T05:28:44.264Z,12.20
2022-10-11T05:31:12.637Z,12.20
2022-10-11T05:33:40.446Z,12.20
2022-10-11T05:36:09.759Z,12.20
2022-10-11T05:38:38.477Z,12.20
2022-10-11T05:41:08.995Z,12.20
2022-10-11T05:43:37.236Z,12.10
2022-10-11T05:46:05.482Z,12.20
2022-10-11T05:48:34.068Z,12.20
2022-10-11T05:51:02.977Z,12.20
2022-10-11T05:53:31.175Z,12.20
2022-10-11T05:55:59.638Z,12.20
2022-10-11T05:58:29.258Z,12.20
2022-10-11T06:00:57.634Z,12.20
2022-10-11T06:03:25.653Z,12.30
2022-10-11T06:05:56.937Z,12.30
2022-10-11T06:08:25.087Z,12.30
2022-10-11T06:10:52.832Z,12.30
2022-10-11T06:13:20.581Z,12.40
2022-10-11T06:15:49.695Z,12.40
2022-10-11T06:18:17.471Z,12.40
2022-10-11T06:20:45.227Z,12.50
2022-10-11T06:23:13.844Z,12.50
2022-10-11T06:25:41.630Z,12.50
2022-10-11T06:28:09.429Z,12.50
2022-10-11T06:30:39.210Z,12.60
2022-10-11T06:33:08.293Z,12.70
2022-10-11T06:35:36.079Z,12.70
2022-10-11T06:38:03.995Z,12.70
2022-10-11T06:40:31.759Z,12.80
2022-10-11T06:42:59.482Z,12.80
2022-10-11T06:45:27.302Z,12.90
2022-10-11T06:47:55.078Z,12.90
2022-10-11T06:50:47.237Z,12.90
2022-10-11T06:53:12.237Z,12.90
2022-10-11T06:55:40.077Z,13.10
2022-10-11T06:58:07.855Z,13.10
2022-10-11T07:00:35.638Z,13.10
2022-10-11T07:03:03.493Z,13.20
2022-10-11T07:05:33.422Z,13.20
2022-10-11T07:08:01.210Z,13.20
2022-10-11T07:10:29.294Z,13.20
2022-10-11T07:12:57.267Z,13.30
2022-10-11T07:15:25.135Z,13.40
2022-10-11T07:17:52.875Z,13.40
2022-10-11T07:20:20.635Z,13.40
2022-10-11T07:22:49.786Z,13.50
2022-10-11T07:25:17.638Z,13.50
2022-10-11T07:27:45.422Z,13.60
2022-10-11T07:30:14.335Z,13.70
2022-10-11T07:32:42.265Z,13.70
2022-10-11T07:35:10.208Z,13.70
2022-10-11T07:37:37.976Z,13.80
2022-10-11T07:40:11.102Z,13.80
2022-10-11T07:42:39.671Z,13.80
2022-10-11T07:45:08.079Z,13.80
2022-10-11T07:47:35.839Z,13.90
2022-10-11T07:50:03.679Z,13.90
2022-10-11T07:52:31.434Z,14.00
2022-10-11T07:54:59.170Z,14.00
2022-10-11T07:57:28.315Z,13.90
2022-10-11T07:59:56.149Z,14.00
2022-10-11T08:02:23.907Z,13.90
2022-10-11T08:04:51.703Z,14.00
2022-10-11T08:07:19.453Z,14.00
2022-10-11T08:09:47.713Z,14.00
2022-10-11T08:12:15.470Z,14.00
2022-10-11T08:14:44.592Z,14.10
2022-10-11T08:17:12.416Z,14.10
2022-10-11T08:19:40.208Z,14.10
2022-10-11T08:22:07.996Z,14.20
2022-10-11T08:24:38.284Z,14.20
2022-10-11T08:27:06.659Z,14.20
2022-10-11T08:29:34.460Z,14.20
2022-10-11T08:32:03.525Z,14.30
2022-10-11T08:34:31.682Z,14.40
2022-10-11T08:36:59.407Z,14.30
2022-10-11T08:39:27.164Z,14.30
2022-10-11T08:41:58.547Z,14.30
2022-10-11T08:45:05.442Z,14.30
2022-10-11T08:47:32.461Z,14.30
2022-10-11T08:50:01.301Z,14.30
2022-10-11T08:52:34.812Z,14.30
2022-10-11T08:55:06.074Z,14.30
2022-10-11T08:57:38.243Z,14.40
2022-10-11T09:00:09.330Z,14.50
2022-10-11T09:03:07.074Z,14.70
2022-10-11T09:05:36.467Z,14.80
2022-10-11T09:08:11.903Z,14.90
2022-10-11T09:10:59.250Z,14.80
2022-10-11T09:13:43.676Z,14.60
2022-10-11T09:16:22.584Z,14.80
2022-10-11T09:19:17.003Z,14.80
2022-10-11T09:21:52.711Z,14.80
2022-10-11T09:24:34.653Z,14.70
2022-10-11T09:27:09.025Z,14.80
2022-10-11T09:29:52.023Z,15.00
2022-10-11T09:32:21.838Z,15.10
2022-10-11T09:35:00.191Z,15.20
2022-10-11T09:37:33.736Z,15.00
2022-10-11T09:40:07.892Z,15.20
2022-10-11T09:42:35.659Z,15.50
2022-10-11T09:45:09.395Z,15.60
2022-10-11T09:47:37.151Z,15.80
2022-10-11T09:50:14.924Z,15.90
2022-10-11T09:52:49.898Z,16.20
2022-10-11T09:55:32.919Z,16.20
2022-10-11T09:58:01.400Z,16.10
2022-10-11T10:00:33.430Z,16.20
2022-10-11T10:03:03.574Z,16.30
2022-10-11T10:05:35.199Z,16.30
2022-10-11T10:08:08.262Z,16.20
2022-10-11T10:10:41.455Z,16.30
2022-10-11T10:13:21.691Z,16.30
2022-10-11T10:15:53.471Z,16.30
2022-10-11T10:18:24.664Z,16.10
2022-10-11T10:20:56.334Z,16.10
2022-10-11T10:23:27.325Z,16.20
2022-10-11T10:26:12.272Z,16.10
2022-10-11T10:28:41.284Z,15.90
2022-10-11T10:31:22.884Z,15.80
2022-10-11T10:33:54.057Z,15.60
2022-10-11T10:36:28.193Z,15.60
2022-10-11T10:39:03.503Z,15.50
2022-10-11T10:41:31.368Z,15.50
2022-10-11T10:44:01.670Z,15.50
2022-10-11T10:46:49.979Z,15.40
2022-10-11T10:49:52.535Z,15.40
2022-10-11T10:52:31.402Z,15.30
2022-10-11T10:55:06.351Z,15.40
2022-10-11T10:57:39.326Z,15.40
2022-10-11T11:00:15.884Z,15.40
2022-10-11T11:02:51.010Z,15.50
2022-10-11T11:05:28.080Z,15.60
2022-10-11T11:08:05.924Z,15.60
2022-10-11T11:10:39.123Z,15.70
2022-10-11T11:13:19.415Z,15.80
2022-10-11T11:15:55.502Z,16.00
2022-10-11T11:18:30.391Z,16.00
2022-10-11T11:21:14.734Z,16.00
2022-10-11T11:23:50.299Z,16.10
2022-10-11T11:26:26.223Z,16.30
2022-10-11T11:29:12.224Z,16.40
2022-10-11T11:32:05.430Z,16.40
2022-10-11T11:34:38.093Z,16.40
2022-10-11T11:37:11.594Z,16.70
2022-10-11T11:39:45.070Z,16.80
2022-10-11T11:42:16.616Z,17.00
2022-10-11T11:44:47.748Z,17.00
2022-10-11T11:47:21.155Z,17.00
2022-10-11T11:49:54.530Z,17.00
2022-10-11T11:52:28.333Z,17.10
2022-10-11T11:55:06.636Z,17.20
2022-10-11T11:57:53.157Z,16.90
2022-10-11T12:00:23.019Z,16.90
2022-10-11T12:02:56.187Z,16.80
2022-10-11T12:05:27.816Z,16.90
2022-10-11T12:08:00.197Z,16.90
2022-10-11T12:10:39.533Z,16.90
2022-10-11T12:13:20.137Z,17.20
2022-10-11T12:16:02.043Z,17.10
2022-10-11T12:18:31.176Z,17.20
2022-10-11T12:21:05.761Z,17.20
2022-10-11T12:23:41.780Z,17.30
2022-10-11T12:26:47.943Z,17.30
2022-10-11T12:29:53.575Z,17.20
2022-10-11T12:32:51.993Z,17.40
2022-10-11T12:36:01.464Z,17.30
2022-10-11T12:38:34.184Z,17.40
2022-10-11T12:41:47.461Z,17.20
2022-10-11T12:44:25.021Z,17.40
2022-10-11T12:47:21.773Z,17.50
2022-10-11T12:50:03.593Z,17.50
2022-10-11T12:52:41.533Z,17.40
2022-10-11T12:55:31.351Z,17.30
2022-10-11T12:58:24.131Z,17.20
2022-10-11T13:01:18.501Z,16.90
2022-10-11T13:03:50.821Z,17.00
2022-10-11T13:06:21.104Z,16.70
2022-10-11T13:08:54.436Z,16.70
2022-10-11T13:11:25.647Z,16.90
2022-10-11T13:13:59.026Z,16.90
2022-10-11T13:16:30.893Z,16.70
2022-10-11T13:19:00.457Z,16.70
2022-10-11T13:21:32.070Z,16.70
2022-10-11T13:24:01.600Z,16.70
2022-10-11T13:26:31.023Z,16.60
2022-10-11T13:29:00.779Z,16.60
2022-10-11T13:31:30.088Z,16.60
2022-10-11T13:33:59.914Z,16.70
2022-10-11T13:36:28.781Z,16.80
2022-10-11T13:38:59.034Z,16.80
2022-10-11T13:41:28.541Z,16.70
2022-10-11T13:43:58.174Z,16.70
2022-10-11T13:46:31.791Z,16.80
2022-10-11T13:49:01.690Z,16.90
2022-10-11T13:51:33.246Z,16.90
2022-10-11T13:54:03.258Z,16.90
2022-10-11T13:56:35.746Z,16.80
2022-10-11T13:59:04.261Z,16.80
2022-10-11T14:01:40.455Z,16.80
2022-10-11T14:04:10.366Z,16.80
2022-10-11T14:06:45.034Z,16.80
2022-10-11T14:09:21.717Z,16.80
2022-10-11T14:11:49.762Z,16.70
2022-10-11T14:14:30.854Z,16.80
2022-10-11T14:17:06.823Z,16.60
2022-10-11T14:19:34.597Z,16.50
2022-10-11T14:22:04.550Z,16.40
2022-10-11T14:24:32.558Z,16.40
2022-10-11T14:27:01.660Z,16.40
2022-10-11T14:29:31.304Z,16.40
2022-10-11T14:32:03.871Z,16.40
2022-10-11T14:34:32.652Z,16.30
2022-10-11T14:37:00.498Z,16.30
2022-10-11T14:39:30.585Z,16.30
2022-10-11T14:41:58.944Z,16.30
2022-10-11T14:44:26.919Z,16.30
2022-10-11T14:46:55.514Z,16.20
2022-10-11T14:49:26.624Z,16.10
2022-10-11T14:51:56.203Z,16.20
2022-10-11T14:54:25.673Z,16.10
2022-10-11T14:56:55.589Z,16.20
2022-10-11T14:59:25.853Z,16.20
2022-10-11T15:01:54.282Z,16.10
2022-10-11T15:04:24.795Z,16.10
2022-10-11T15:06:54.584Z,16.20
2022-10-11T15:09:23.225Z,16.30
2022-10-11T15:11:54.077Z,16.30
2022-10-11T15:14:22.548Z,16.40
2022-10-11T15:16:50.634Z,16.70
2022-10-11T15:19:20.658Z,16.80
2022-10-11T15:21:50.374Z,17.00
2022-10-11T15:24:19.803Z,17.00
2022-10-11T15:26:48.092Z,16.70
2022-10-11T15:29:17.749Z,16.50
2022-10-11T15:31:46.841Z,16.40
2022-10-11T15:34:14.664Z,16.30
2022-10-11T15:36:42.720Z,16.20
2022-10-11T15:39:25.024Z,16.00
2022-10-11T15:41:52.811Z,15.90
2022-10-11T15:44:20.548Z,15.70
2022-10-11T15:46:48.461Z,15.60
2022-10-11T15:49:17.359Z,15.50
2022-10-11T15:51:45.141Z,15.40
2022-10-11T15:54:12.891Z,15.40
2022-10-11T15:56:43.147Z,15.40
2022-10-11T15:59:11.452Z,15.30
2022-10-11T16:01:39.531Z,15.30
2022-10-11T16:04:07.432Z,15.30
2022-10-11T16:06:35.199Z,15.30
2022-10-11T16:09:03.039Z,15.20
2022-10-11T16:11:30.846Z,15.20
2022-10-11T16:13:59.983Z,15.20
2022-10-11T16:16:27.853Z,15.20
2022-10-11T16:18:55.620Z,15.10
2022-10-11T16:21:24.092Z,15.10
2022-10-11T16:23:51.919Z,15.10
2022-10-11T16:26:19.748Z,15.10
2022-10-11T16:28:48.439Z,15.00
2022-10-11T16:31:20.801Z,15.00
2022-10-11T16:33:50.101Z,15.00
2022-10-11T16:36:40.362Z,15.00
2022-10-11T16:39:11.951Z,15.00
2022-10-11T16:41:40.221Z,14.90
2022-10-11T16:44:08.774Z,14.90
2022-10-11T16:46:37.908Z,14.90
2022-10-11T16:49:06.531Z,14.80
2022-10-11T16:51:34.667Z,14.80
2022-10-11T16:54:02.589Z,14.90
2022-10-11T16:56:30.498Z,14.90
2022-10-11T16:58:58.288Z,14.90
2022-10-11T17:01:26.435Z,14.90
2022-10-11T17:03:55.725Z,14.80
2022-10-11T17:06:24.187Z,14.80
2022-10-11T17:08:52.151Z,14.80
2022-10-11T17:11:21.575Z,14.70
2022-10-11T17:13:51.439Z,14.70
2022-10-11T17:16:19.595Z,14.70
2022-10-11T17:18:47.696Z,14.70
2022-10-11T17:21:18.551Z,14.60
2022-10-11T17:23:46.444Z,14.60
2022-10-11T17:26:18.728Z,14.60
2022-10-11T17:28:46.992Z,14.60
2022-10-11T17:31:14.823Z,14.50
2022-10-11T17:33:42.927Z,14.50
2022-10-11T17:36:19.728Z,14.50
2022-10-11T17:38:47.926Z,14.50
2022-10-11T17:41:15.890Z,14.40
2022-10-11T17:43:44.006Z,14.40
2022-10-11T17:46:13.689Z,14.30
2022-10-11T17:48:42.034Z,14.30
2022-10-11T17:51:11.184Z,14.30
2022-10-11T17:53:40.971Z,14.30
2022-10-11T17:56:10.635Z,14.20
2022-10-11T17:58:38.679Z,14.20
2022-10-11T18:01:08.999Z,14.10
2022-10-11T18:03:37.402Z,14.00
2022-10-11T18:06:06.271Z,14.00
2022-10-11T18:08:40.121Z,13.90
2022-10-11T18:11:13.312Z,13.90
2022-10-11T18:13:45.907Z,13.90
2022-10-11T18:16:14.262Z,13.90
2022-10-11T18:18:42.256Z,13.90
2022-10-11T18:21:10.559Z,13.90
2022-10-11T18:23:38.561Z,13.80
2022-10-11T18:26:13.090Z,13.90
2022-10-11T18:28:41.488Z,13.80
2022-10-11T18:31:13.443Z,13.90
2022-10-11T18:33:42.040Z,13.80
2022-10-11T18:36:13.347Z,13.80
2022-10-11T18:38:45.969Z,13.80
2022-10-11T18:41:17.873Z,13.80
2022-10-11T18:43:49.921Z,13.80
2022-10-11T18:46:18.676Z,13.80
2022-10-11T18:48:48.797Z,13.70
2022-10-11T18:51:19.377Z,13.80
2022-10-11T18:53:48.479Z,13.80
2022-10-11T18:56:20.819Z,13.80
2022-10-11T18:58:52.071Z,13.70
2022-10-11T19:01:21.737Z,13.70
2022-10-11T19:03:52.599Z,13.70
2022-10-11T19:06:22.755Z,13.70
2022-10-11T19:08:52.406Z,13.70
2022-10-11T19:11:22.654Z,13.70
2022-10-11T19:13:56.578Z,13.70
2022-10-11T19:16:25.223Z,13.70
2022-10-11T19:18:54.291Z,13.60
2022-10-11T19:21:22.952Z,13.70
2022-10-11T19:23:52.070Z,13.70
2022-10-11T19:26:22.847Z,13.70
2022-10-11T19:28:55.910Z,13.70
2022-10-11T19:31:24.084Z,13.70
2022-10-11T19:33:51.979Z,13.70
2022-10-11T19:36:19.843Z,13.70
2022-10-11T19:38:49.641Z,13.70
2022-10-11T19:41:20.167Z,13.70
2022-10-11T19:43:49.482Z,13.70
2022-10-11T19:46:37.856Z,13.70
2022-10-11T19:49:08.628Z,13.70
2022-10-11T19:51:38.514Z,13.70
2022-10-11T19:54:08.317Z,13.80
2022-10-11T19:56:36.570Z,13.80
2022-10-11T19:59:07.255Z,13.80
2022-10-11T20:01:36.453Z,13.80
2022-10-11T20:04:06.915Z,13.80
2022-10-11T20:06:38.577Z,13.70
2022-10-11T20:11:55.103Z,13.70
2022-10-11T20:14:24.327Z,13.70
2022-10-11T20:16:52.281Z,13.70
2022-10-11T20:19:23.837Z,13.70
2022-10-11T20:21:55.606Z,13.70
2022-10-11T20:24:23.427Z,13.70
2022-10-11T20:26:51.167Z,13.70
2022-10-11T20:29:18.929Z,13.70
2022-10-11T20:31:48.124Z,13.70
2022-10-11T20:34:15.892Z,13.70
2022-10-11T20:36:48.219Z,13.70
2022-10-11T20:39:17.748Z,13.70
2022-10-11T20:41:45.571Z,13.80
2022-10-11T20:44:15.784Z,13.70
2022-10-11T20:46:43.583Z,13.70
2022-10-11T20:49:13.131Z,13.70
2022-10-11T20:51:43.695Z,13.60
2022-10-11T20:54:13.324Z,13.60
2022-10-11T20:56:41.247Z,13.70
2022-10-11T20:59:09.429Z,13.60
2022-10-11T21:01:39.439Z,13.70
2022-10-11T21:04:08.683Z,13.60
2022-10-11T21:06:37.820Z,13.50
2022-10-11T21:09:05.654Z,13.60
2022-10-11T21:11:35.378Z,13.50
2022-10-11T21:14:05.693Z,13.50
2022-10-11T21:16:33.946Z,13.50
2022-10-11T21:19:02.678Z,13.60
2022-10-11T21:21:31.038Z,13.60
2022-10-11T21:24:01.671Z,13.60
2022-10-11T21:26:30.911Z,13.70
2022-10-11T21:29:00.086Z,13.70
2022-10-11T21:31:32.897Z,13.60
2022-10-11T21:34:01.606Z,13.60
2022-10-11T21:36:29.364Z,13.60
2022-10-11T21:38:57.578Z,13.60
2022-10-11T21:41:29.001Z,13.50
2022-10-11T21:43:56.888Z,13.50
2022-10-11T21:46:36.957Z,13.60
2022-10-11T21:49:14.757Z,13.60
2022-10-11T21:51:42.548Z,13.60
2022-10-11T21:54:10.648Z,13.60
2022-10-11T21:56:39.751Z,13.60
2022-10-11T21:59:11.159Z,13.50
2022-10-11T22:01:40.937Z,13.50
2022-10-11T22:04:10.652Z,13.50
2022-10-11T22:06:39.153Z,13.40
2022-10-11T22:09:08.190Z,13.40
2022-10-11T22:11:36.099Z,13.40
2022-10-11T22:14:05.798Z,13.40
2022-10-11T22:16:35.228Z,13.40
2022-10-11T22:19:03.077Z,13.40
2022-10-11T22:21:31.127Z,13.40
2022-10-11T22:23:58.980Z,13.40
2022-10-11T22:26:30.967Z,13.40
2022-10-11T22:29:00.116Z,13.30
2022-10-11T22:31:29.718Z,13.30
2022-10-11T22:33:58.941Z,13.20
2022-10-11T22:36:27.839Z,13.10
2022-10-11T22:38:55.611Z,13.10
2022-10-11T22:41:24.159Z,13.00
2022-10-11T22:43:51.957Z,12.90
2022-10-11T22:46:19.975Z,12.90
2022-10-11T22:48:49.107Z,12.80
2022-10-11T22:51:16.869Z,12.80
2022-10-11T22:53:44.589Z,12.70
2022-10-11T22:56:12.630Z,12.80
2022-10-11T22:58:40.709Z,12.70
2022-10-11T23:01:09.487Z,12.70
2022-10-11T23:03:37.794Z,12.70
2022-10-11T23:06:07.372Z,12.60
2022-10-11T23:08:35.135Z,12.60
2022-10-11T23:11:07.433Z,12.60
2022-10-11T23:13:35.794Z,12.50
2022-10-11T23:16:07.062Z,12.40
2022-10-11T23:18:34.939Z,12.40
2022-10-11T23:21:03.541Z,12.40
2022-10-11T23:23:33.405Z,12.30
2022-10-11T23:26:02.958Z,12.30
2022-10-11T23:28:30.918Z,12.30
2022-10-11T23:30:58.827Z,12.40
2022-10-11T23:33:28.167Z,12.30
2022-10-11T23:35:55.982Z,12.30
2022-10-11T23:38:23.848Z,12.40
2022-10-11T23:40:53.128Z,12.30
2022-10-11T23:43:20.933Z,12.40
2022-10-11T23:45:48.706Z,12.30
2022-10-11T23:48:16.607Z,12.40
2022-10-11T23:50:44.393Z,12.30
2022-10-11T23:53:14.079Z,12.30
2022-10-11T23:55:42.844Z,12.30
2022-10-11T23:58:11.920Z,12.30
